createdAt,value
2022-09-21T00:01:19.931Z,8.23
2022-09-21T00:03:47.243Z,8.26
2022-09-21T00:06:17.079Z,8.28
2022-09-21T00:08:45.543Z,8.28
2022-09-21T00:11:25.057Z,8.29
2022-09-21T00:13:55.322Z,8.32
2022-09-21T00:16:22.648Z,8.30
2022-09-21T00:18:49.703Z,8.33
2022-09-21T00:21:17.373Z,8.35
2022-09-21T00:23:44.900Z,8.37
2022-09-21T00:26:20.076Z,8.41
2022-09-21T00:28:47.645Z,8.41
2022-09-21T00:31:17.747Z,8.37
2022-09-21T00:33:44.949Z,8.40
2022-09-21T00:36:16.837Z,8.42
2022-09-21T00:38:46.186Z,8.46
2022-09-21T00:41:13.284Z,8.44
2022-09-21T00:43:47.344Z,8.49
2022-09-21T00:46:20.404Z,8.53
2022-09-21T00:48:47.258Z,8.56
2022-09-21T00:51:14.846Z,8.58
2022-09-21T00:53:42.006Z,8.60
2022-09-21T00:56:11.059Z,8.59
2022-09-21T00:58:43.885Z,8.61
2022-09-21T01:01:12.232Z,8.61
2022-09-21T01:03:39.626Z,8.60
2022-09-21T01:06:06.499Z,8.64
2022-09-21T01:08:34.435Z,8.66
2022-09-21T01:11:23.073Z,8.68
2022-09-21T01:14:08.420Z,8.68
2022-09-21T01:16:49.006Z,8.69
2022-09-21T01:19:40.444Z,8.72
2022-09-21T01:22:33.169Z,8.73
2022-09-21T01:25:24.294Z,8.73
2022-09-21T01:28:16.146Z,8.74
2022-09-21T01:30:48.946Z,8.74
2022-09-21T01:33:23.422Z,8.72
2022-09-21T01:35:56.370Z,8.72
2022-09-21T01:38:28.191Z,8.76
2022-09-21T01:41:07.181Z,8.77
2022-09-21T01:43:41.056Z,8.78
2022-09-21T01:46:13.882Z,8.80
2022-09-21T01:48:44.899Z,8.80
2022-09-21T01:51:15.589Z,8.79
2022-09-21T01:53:48.351Z,8.78
2022-09-21T01:56:30.847Z,8.78
2022-09-21T01:59:11.345Z,8.78
2022-09-21T02:02:06.323Z,8.76
2022-09-21T02:04:35.136Z,8.74
2022-09-21T02:07:02.598Z,8.73
2022-09-21T02:09:29.875Z,8.70
2022-09-21T02:11:58.234Z,8.71
2022-09-21T02:14:25.910Z,8.67
2022-09-21T02:17:06.252Z,8.66
2022-09-21T02:20:03.031Z,8.62
2022-09-21T02:22:40.961Z,8.63
2022-09-21T02:25:21.701Z,8.62
2022-09-21T02:27:51.617Z,8.65
2022-09-21T02:30:26.561Z,8.67
2022-09-21T02:33:06.485Z,8.66
2022-09-21T02:35:52.105Z,8.66
2022-09-21T02:38:41.040Z,8.67
2022-09-21T02:41:17.010Z,8.65
2022-09-21T02:43:49.083Z,8.64
2022-09-21T02:46:28.756Z,8.62
2022-09-21T02:49:00.870Z,8.65
2022-09-21T02:51:42.231Z,8.63
2022-09-21T02:54:13.928Z,8.66
2022-09-21T02:56:42.614Z,8.67
2022-09-21T02:59:10.822Z,8.65
2022-09-21T03:01:40.421Z,8.67
2022-09-21T03:04:07.553Z,8.68
2022-09-21T03:06:34.719Z,8.70
2022-09-21T03:09:01.581Z,8.71
2022-09-21T03:11:28.642Z,8.72
2022-09-21T03:13:55.423Z,8.73
2022-09-21T03:16:22.947Z,8.73
2022-09-21T03:18:50.116Z,8.73
2022-09-21T03:21:17.013Z,8.72
2022-09-21T03:23:43.743Z,8.71
2022-09-21T03:26:10.769Z,8.73
2022-09-21T03:28:37.523Z,8.71
2022-09-21T03:31:04.567Z,8.71
2022-09-21T03:33:31.621Z,8.70
2022-09-21T03:35:58.602Z,8.74
2022-09-21T03:38:26.967Z,8.77
2022-09-21T03:40:58.197Z,8.74
2022-09-21T03:43:25.413Z,8.76
2022-09-21T03:45:53.321Z,8.77
2022-09-21T03:48:21.145Z,8.82
2022-09-21T03:50:48.128Z,8.85
2022-09-21T03:53:15.045Z,8.87
2022-09-21T03:55:42.210Z,8.89
2022-09-21T03:58:09.210Z,8.91
2022-09-21T04:00:36.456Z,8.93
2022-09-21T04:03:03.634Z,8.95
2022-09-21T04:05:30.419Z,8.93
2022-09-21T04:07:57.473Z,8.93
2022-09-21T04:10:29.316Z,8.97
2022-09-21T04:13:01.454Z,8.96
2022-09-21T04:15:29.547Z,8.97
2022-09-21T04:17:56.806Z,8.98
2022-09-21T04:20:24.075Z,9.03
2022-09-21T04:22:51.894Z,9.03
2022-09-21T04:25:18.769Z,9.05
2022-09-21T04:27:45.602Z,9.06
2022-09-21T04:30:14.266Z,9.05
2022-09-21T04:32:41.104Z,9.03
2022-09-21T04:35:08.495Z,9.06
2022-09-21T04:37:35.544Z,9.02
2022-09-21T04:40:03.500Z,9.06
2022-09-21T04:42:30.856Z,9.09
2022-09-21T04:44:57.810Z,9.09
2022-09-21T04:47:25.327Z,9.12
2022-09-21T04:49:53.460Z,9.14
2022-09-21T04:52:20.798Z,9.18
2022-09-21T04:54:48.078Z,9.20
2022-09-21T04:57:15.466Z,9.17
2022-09-21T04:59:42.630Z,9.19
2022-09-21T05:02:09.480Z,9.20
2022-09-21T05:04:36.408Z,9.20
2022-09-21T05:07:03.653Z,9.24
2022-09-21T05:09:48.873Z,9.22
2022-09-21T05:12:15.871Z,9.19
2022-09-21T05:14:44.206Z,9.13
2022-09-21T05:17:12.142Z,9.13
2022-09-21T05:19:39.317Z,9.13
2022-09-21T05:22:06.127Z,9.14
2022-09-21T05:24:32.950Z,9.11
2022-09-21T05:27:00.370Z,9.13
2022-09-21T05:29:27.475Z,9.18
2022-09-21T05:32:06.752Z,9.16
2022-09-21T05:34:44.774Z,9.11
2022-09-21T05:37:45.555Z,9.13
2022-09-21T05:40:12.984Z,9.14
2022-09-21T05:42:41.367Z,9.13
2022-09-21T05:45:14.405Z,9.16
2022-09-21T05:48:06.978Z,9.16
2022-09-21T05:50:42.983Z,9.12
2022-09-21T05:53:18.931Z,9.12
2022-09-21T05:55:54.494Z,9.16
2022-09-21T05:58:26.669Z,9.22
2022-09-21T06:01:15.469Z,9.22
2022-09-21T06:03:43.025Z,9.22
2022-09-21T06:06:10.215Z,9.23
2022-09-21T06:08:37.047Z,9.25
2022-09-21T06:11:04.372Z,9.29
2022-09-21T06:13:31.345Z,9.30
2022-09-21T06:16:01.366Z,9.35
2022-09-21T06:18:28.317Z,9.35
2022-09-21T06:20:55.365Z,9.37
2022-09-21T06:23:22.113Z,9.41
2022-09-21T06:25:57.510Z,9.41
2022-09-21T06:28:25.806Z,9.43
2022-09-21T06:30:54.377Z,9.41
2022-09-21T06:33:23.571Z,9.45
2022-09-21T06:35:57.509Z,9.46
2022-09-21T06:38:25.662Z,9.52
2022-09-21T06:40:53.513Z,9.54
2022-09-21T06:43:20.793Z,9.61
2022-09-21T06:45:55.734Z,9.63
2022-09-21T06:48:23.804Z,9.66
2022-09-21T06:50:51.644Z,9.68
2022-09-21T06:53:18.450Z,9.70
2022-09-21T06:55:45.254Z,9.73
2022-09-21T06:58:12.316Z,9.75
2022-09-21T07:00:39.114Z,9.73
2022-09-21T07:03:05.966Z,9.76
2022-09-21T07:05:34.267Z,9.74
2022-09-21T07:08:01.325Z,9.75
2022-09-21T07:10:28.603Z,9.79
2022-09-21T07:12:55.913Z,9.82
2022-09-21T07:15:23.713Z,9.85
2022-09-21T07:17:52.409Z,9.92
2022-09-21T07:20:19.631Z,10.02
2022-09-21T07:22:46.363Z,10.13
2022-09-21T07:25:13.544Z,10.21
2022-09-21T07:27:40.734Z,10.34
2022-09-21T07:30:09.198Z,10.41
2022-09-21T07:32:36.574Z,10.44
2022-09-21T07:35:03.879Z,10.43
2022-09-21T07:37:31.729Z,10.44
2022-09-21T07:39:58.864Z,10.44
2022-09-21T07:42:27.985Z,10.50
2022-09-21T07:45:03.314Z,10.51
2022-09-21T07:47:31.518Z,10.50
2022-09-21T07:49:58.379Z,10.51
2022-09-21T07:52:25.189Z,10.57
2022-09-21T07:54:52.204Z,10.61
2022-09-21T07:57:37.373Z,10.67
2022-09-21T08:00:05.334Z,10.68
2022-09-21T08:02:32.215Z,10.74
2022-09-21T08:04:59.078Z,10.70
2022-09-21T08:07:27.916Z,10.64
2022-09-21T08:09:54.706Z,10.65
2022-09-21T08:12:21.568Z,10.66
2022-09-21T08:14:48.580Z,10.68
2022-09-21T08:17:15.698Z,10.74
2022-09-21T08:19:42.630Z,10.75
2022-09-21T08:22:09.460Z,10.79
2022-09-21T08:24:37.675Z,10.87
2022-09-21T08:27:05.142Z,10.86
2022-09-21T08:29:31.911Z,10.80
2022-09-21T08:31:58.850Z,10.80
2022-09-21T08:34:26.448Z,10.87
2022-09-21T08:36:55.676Z,10.79
2022-09-21T08:39:22.803Z,10.87
2022-09-21T08:41:49.748Z,10.94
2022-09-21T08:44:45.650Z,11.11
2022-09-21T08:47:20.262Z,11.30
2022-09-21T08:49:55.458Z,11.36
2022-09-21T08:52:25.128Z,11.39
2022-09-21T08:54:51.813Z,11.41
2022-09-21T08:57:20.446Z,11.45
2022-09-21T08:59:49.520Z,11.51
2022-09-21T09:02:31.530Z,11.54
2022-09-21T09:05:12.731Z,11.58
2022-09-21T09:07:59.602Z,11.55
2022-09-21T09:10:43.500Z,11.60
2022-09-21T09:13:34.703Z,11.67
2022-09-21T09:16:41.712Z,11.81
2022-09-21T09:19:30.199Z,12.07
2022-09-21T09:21:57.382Z,12.26
2022-09-21T09:24:49.000Z,12.42
2022-09-21T09:27:27.678Z,12.54
2022-09-21T09:30:15.147Z,12.61
2022-09-21T09:32:57.895Z,12.65
2022-09-21T09:35:33.198Z,12.66
2022-09-21T09:38:10.661Z,12.58
2022-09-21T09:41:11.243Z,12.48
2022-09-21T09:43:47.238Z,12.40
2022-09-21T09:46:19.951Z,12.21
2022-09-21T09:49:12.286Z,11.99
2022-09-21T09:51:40.641Z,11.82
2022-09-21T09:54:15.004Z,11.75
2022-09-21T09:56:42.370Z,11.71
2022-09-21T09:59:30.577Z,11.65
2022-09-21T10:02:20.316Z,11.62
2022-09-21T10:05:06.137Z,11.60
2022-09-21T10:07:43.454Z,11.62
2022-09-21T10:10:28.814Z,11.71
2022-09-21T10:13:03.080Z,11.94
2022-09-21T10:15:30.153Z,12.45
2022-09-21T10:18:08.436Z,12.97
2022-09-21T10:20:35.484Z,13.30
2022-09-21T10:23:03.438Z,13.49
2022-09-21T10:25:31.265Z,13.50
2022-09-21T10:27:59.286Z,13.47
2022-09-21T10:30:38.849Z,13.47
2022-09-21T10:33:23.974Z,13.57
2022-09-21T10:35:52.933Z,13.72
2022-09-21T10:38:27.659Z,13.92
2022-09-21T10:40:55.116Z,14.24
2022-09-21T10:43:39.816Z,14.47
2022-09-21T10:46:09.564Z,14.88
2022-09-21T10:48:37.504Z,15.06
2022-09-21T10:51:04.753Z,14.99
2022-09-21T10:53:36.894Z,15.07
2022-09-21T10:56:16.035Z,15.16
2022-09-21T10:59:20.707Z,15.23
2022-09-21T11:01:50.872Z,15.30
2022-09-21T11:04:20.841Z,14.98
2022-09-21T11:06:52.860Z,14.31
2022-09-21T11:09:32.288Z,13.57
2022-09-21T11:12:23.878Z,12.85
2022-09-21T11:15:00.943Z,12.44
2022-09-21T11:17:48.894Z,12.04
2022-09-21T11:20:30.962Z,11.76
2022-09-21T11:23:05.080Z,11.64
2022-09-21T11:25:44.306Z,11.86
2022-09-21T11:28:25.179Z,12.71
2022-09-21T11:31:13.357Z,13.58
2022-09-21T11:33:58.960Z,13.96
2022-09-21T11:36:35.508Z,14.00
2022-09-21T11:39:11.091Z,13.88
2022-09-21T11:41:57.344Z,13.83
2022-09-21T11:44:38.901Z,13.65
2022-09-21T11:47:18.785Z,13.43
2022-09-21T11:50:26.383Z,13.33
2022-09-21T11:53:25.568Z,13.37
2022-09-21T11:56:07.204Z,13.93
2022-09-21T11:58:47.478Z,14.61
2022-09-21T12:01:36.820Z,15.41
2022-09-21T12:04:15.717Z,16.42
2022-09-21T12:06:50.105Z,17.12
2022-09-21T12:09:23.119Z,17.80
2022-09-21T12:12:22.459Z,18.01
2022-09-21T12:14:59.756Z,18.49
2022-09-21T12:17:45.487Z,18.64
2022-09-21T12:20:18.065Z,18.53
2022-09-21T12:22:47.356Z,18.68
2022-09-21T12:25:20.143Z,18.77
2022-09-21T12:27:56.736Z,18.77
2022-09-21T12:30:24.708Z,18.36
2022-09-21T12:33:01.878Z,18.03
2022-09-21T12:35:40.840Z,18.07
2022-09-21T12:38:07.908Z,18.10
2022-09-21T12:41:27.391Z,18.21
2022-09-21T12:44:18.516Z,17.69
2022-09-21T12:46:54.328Z,17.07
2022-09-21T12:49:29.911Z,16.68
2022-09-21T12:52:03.317Z,16.11
2022-09-21T12:54:48.201Z,15.83
2022-09-21T12:57:58.716Z,15.63
2022-09-21T13:00:35.109Z,15.52
2022-09-21T13:03:37.838Z,15.37
2022-09-21T13:06:41.644Z,15.24
2022-09-21T13:09:12.705Z,15.14
2022-09-21T13:11:54.536Z,14.97
2022-09-21T13:14:24.295Z,14.82
2022-09-21T13:16:57.787Z,14.70
2022-09-21T13:19:27.092Z,14.63
2022-09-21T13:22:19.952Z,14.55
2022-09-21T13:25:03.109Z,14.76
2022-09-21T13:28:09.407Z,14.91
2022-09-21T13:30:44.735Z,14.95
2022-09-21T13:33:20.696Z,15.01
2022-09-21T13:35:50.805Z,14.90
2022-09-21T13:38:34.593Z,14.75
2022-09-21T13:41:02.989Z,14.54
2022-09-21T13:44:05.127Z,14.34
2022-09-21T13:46:35.271Z,14.31
2022-09-21T13:49:11.488Z,14.30
2022-09-21T13:52:01.598Z,14.33
2022-09-21T13:55:00.010Z,14.35
2022-09-21T13:57:46.317Z,14.34
2022-09-21T14:00:13.129Z,14.31
2022-09-21T14:02:44.880Z,14.29
2022-09-21T14:05:28.450Z,14.25
2022-09-21T14:08:03.010Z,14.18
2022-09-21T14:10:32.686Z,14.11
2022-09-21T14:13:02.083Z,14.08
2022-09-21T14:15:38.165Z,14.02
2022-09-21T14:18:17.261Z,13.97
2022-09-21T14:21:17.333Z,13.93
2022-09-21T14:24:06.171Z,13.99
2022-09-21T14:26:50.344Z,14.09
2022-09-21T14:29:36.383Z,14.20
2022-09-21T14:32:05.604Z,14.22
2022-09-21T14:34:36.825Z,14.16
2022-09-21T14:37:16.977Z,14.24
2022-09-21T14:39:45.780Z,14.26
2022-09-21T14:42:19.546Z,14.32
2022-09-21T14:44:51.446Z,14.46
2022-09-21T14:47:36.663Z,14.54
2022-09-21T14:50:24.142Z,14.64
2022-09-21T14:53:28.313Z,14.65
2022-09-21T14:56:13.661Z,14.67
2022-09-21T14:58:54.143Z,14.68
2022-09-21T15:01:37.904Z,14.68
2022-09-21T15:04:29.277Z,14.64
2022-09-21T15:07:27.857Z,14.58
2022-09-21T15:10:37.960Z,14.38
2022-09-21T15:13:08.284Z,14.30
2022-09-21T15:16:21.989Z,14.17
2022-09-21T15:18:54.446Z,13.98
2022-09-21T15:21:27.876Z,13.78
2022-09-21T15:23:56.286Z,13.61
2022-09-21T15:26:26.847Z,13.46
2022-09-21T15:29:12.295Z,13.32
2022-09-21T15:31:42.069Z,13.14
2022-09-21T15:34:11.141Z,13.00
2022-09-21T15:36:43.267Z,12.85
2022-09-21T15:39:30.384Z,12.68
2022-09-21T15:42:09.366Z,12.51
2022-09-21T15:44:38.586Z,12.44
2022-09-21T15:47:12.631Z,12.33
2022-09-21T15:49:41.253Z,12.23
2022-09-21T15:52:13.901Z,12.10
2022-09-21T15:54:45.005Z,11.98
2022-09-21T15:57:39.117Z,11.84
2022-09-21T16:00:21.568Z,11.73
2022-09-21T16:03:05.723Z,11.59
2022-09-21T16:06:17.057Z,11.41
2022-09-21T16:08:43.879Z,11.26
2022-09-21T16:11:19.129Z,11.08
2022-09-21T16:14:06.340Z,10.96
2022-09-21T16:16:33.484Z,10.79
2022-09-21T16:19:00.337Z,10.69
2022-09-21T16:21:29.293Z,10.56
2022-09-21T16:23:58.180Z,10.49
2022-09-21T16:26:30.179Z,10.40
2022-09-21T16:29:26.438Z,10.31
2022-09-21T16:32:19.001Z,10.24
2022-09-21T16:34:51.850Z,10.18
2022-09-21T16:37:24.647Z,10.11
2022-09-21T16:39:54.010Z,10.05
2022-09-21T16:42:22.850Z,9.99
2022-09-21T16:44:50.480Z,9.94
2022-09-21T16:47:28.179Z,9.91
2022-09-21T16:50:00.278Z,9.92
2022-09-21T16:52:29.268Z,9.94
2022-09-21T16:54:58.125Z,9.91
2022-09-21T16:57:26.066Z,9.81
2022-09-21T16:59:53.676Z,9.72
2022-09-21T17:02:20.861Z,9.64
2022-09-21T17:04:48.236Z,9.58
2022-09-21T17:07:16.789Z,9.57
2022-09-21T17:09:47.647Z,9.55
2022-09-21T17:12:17.763Z,9.55
2022-09-21T17:14:47.064Z,9.55
2022-09-21T17:17:24.331Z,9.47
2022-09-21T17:19:53.657Z,9.51
2022-09-21T17:22:21.943Z,9.54
2022-09-21T17:25:00.151Z,9.57
2022-09-21T17:27:29.207Z,9.60
2022-09-21T17:29:56.536Z,9.65
2022-09-21T17:32:24.740Z,9.69
2022-09-21T17:35:01.789Z,9.69
2022-09-21T17:37:29.359Z,9.71
2022-09-21T17:39:56.389Z,9.71
2022-09-21T17:42:25.194Z,9.72
2022-09-21T17:45:15.228Z,9.67
2022-09-21T17:47:42.572Z,9.61
2022-09-21T17:50:12.026Z,9.57
2022-09-21T17:53:01.533Z,9.54
2022-09-21T17:55:29.180Z,9.50
2022-09-21T17:58:05.874Z,9.48
2022-09-21T18:00:35.880Z,9.44
2022-09-21T18:03:02.936Z,9.40
2022-09-21T18:05:30.861Z,9.36
2022-09-21T18:07:58.424Z,9.33
2022-09-21T18:10:27.231Z,9.29
2022-09-21T18:13:07.320Z,9.26
2022-09-21T18:15:34.364Z,9.25
2022-09-21T18:18:10.017Z,9.24
2022-09-21T18:20:52.580Z,9.23
2022-09-21T18:23:19.481Z,9.23
2022-09-21T18:25:49.708Z,9.25
2022-09-21T18:28:58.179Z,9.24
2022-09-21T18:31:43.997Z,9.28
2022-09-21T18:34:29.317Z,9.35
2022-09-21T18:37:18.797Z,9.39
2022-09-21T18:40:04.455Z,9.41
2022-09-21T18:42:53.227Z,9.44
2022-09-21T18:45:28.619Z,9.47
2022-09-21T18:48:26.761Z,9.47
2022-09-21T18:51:21.775Z,9.50
2022-09-21T18:53:57.174Z,9.53
2022-09-21T18:56:27.084Z,9.55
2022-09-21T18:58:54.382Z,9.59
2022-09-21T19:01:22.861Z,9.63
2022-09-21T19:03:50.583Z,9.66
2022-09-21T19:06:29.701Z,9.70
2022-09-21T19:08:59.269Z,9.74
2022-09-21T19:11:32.294Z,9.77
2022-09-21T19:14:17.570Z,9.82
2022-09-21T19:16:53.712Z,9.85
2022-09-21T19:19:39.430Z,9.87
2022-09-21T19:22:35.278Z,9.86
2022-09-21T19:25:12.494Z,9.85
2022-09-21T19:27:43.959Z,9.84
2022-09-21T19:30:15.619Z,9.82
2022-09-21T19:32:56.619Z,9.77
2022-09-21T19:35:32.111Z,9.74
2022-09-21T19:38:04.099Z,9.73
2022-09-21T19:40:33.774Z,9.69
2022-09-21T19:43:17.432Z,9.66
2022-09-21T19:46:23.856Z,9.62
2022-09-21T19:48:55.629Z,9.59
2022-09-21T19:51:37.812Z,9.56
2022-09-21T19:54:31.936Z,9.52
2022-09-21T19:57:17.469Z,9.54
2022-09-21T19:59:45.017Z,9.55
2022-09-21T20:02:14.853Z,9.56
2022-09-21T20:05:05.766Z,9.56
2022-09-21T20:07:51.938Z,9.57
2022-09-21T20:10:42.138Z,9.56
2022-09-21T20:13:27.759Z,9.55
2022-09-21T20:16:31.867Z,9.54
2022-09-21T20:19:11.727Z,9.51
2022-09-21T20:21:41.633Z,9.49
2022-09-21T20:36:57.272Z,9.95
2022-09-21T20:39:24.376Z,9.81
2022-09-21T20:41:52.614Z,9.69
2022-09-21T20:44:19.476Z,9.58
2022-09-21T20:46:46.577Z,9.48
2022-09-21T20:49:15.383Z,9.42
2022-09-21T20:51:42.613Z,9.30
2022-09-21T20:54:09.720Z,9.25
2022-09-21T20:56:37.039Z,9.19
2022-09-21T20:59:03.916Z,9.14
2022-09-21T21:01:31.092Z,9.13
2022-09-21T21:04:02.879Z,9.10
2022-09-21T21:06:35.059Z,9.08
2022-09-21T21:09:02.107Z,9.03
2022-09-21T21:11:29.023Z,9.01
2022-09-21T21:13:56.329Z,8.95
2022-09-21T21:16:23.704Z,8.93
2022-09-21T21:18:51.283Z,8.94
2022-09-21T21:21:18.125Z,8.95
2022-09-21T21:24:07.930Z,8.94
2022-09-21T21:27:00.232Z,8.96
2022-09-21T21:29:23.047Z,8.95
2022-09-21T21:31:50.474Z,8.96
2022-09-21T21:34:17.937Z,8.96
2022-09-21T21:36:45.562Z,8.94
2022-09-21T21:39:12.475Z,8.91
2022-09-21T21:41:39.370Z,8.92
2022-09-21T21:44:06.691Z,8.90
2022-09-21T21:46:33.641Z,8.89
2022-09-21T21:49:00.565Z,8.89
2022-09-21T21:51:27.873Z,8.88
2022-09-21T21:53:54.653Z,8.86
2022-09-21T21:56:23.269Z,8.87
2022-09-21T21:58:54.596Z,8.83
2022-09-21T22:01:26.451Z,8.84
2022-09-21T22:03:58.881Z,8.84
2022-09-21T22:06:27.319Z,8.83
2022-09-21T22:08:56.187Z,8.82
2022-09-21T22:11:24.553Z,8.81
2022-09-21T22:13:53.941Z,8.82
2022-09-21T22:16:22.939Z,8.80
2022-09-21T22:18:50.829Z,8.79
2022-09-21T22:21:26.859Z,8.74
2022-09-21T22:23:56.211Z,8.75
2022-09-21T22:26:24.176Z,8.72
2022-09-21T22:28:57.797Z,8.70
2022-09-21T22:31:27.947Z,8.71
2022-09-21T22:33:56.533Z,8.70
2022-09-21T22:36:25.322Z,8.72
2022-09-21T22:38:53.577Z,8.69
2022-09-21T22:41:23.180Z,8.71
2022-09-21T22:43:52.134Z,8.72
2022-09-21T22:46:20.161Z,8.76
2022-09-21T22:48:47.859Z,8.74
2022-09-21T22:51:16.464Z,8.77
2022-09-21T22:53:43.739Z,8.80
2022-09-21T22:56:16.490Z,8.79
2022-09-21T22:58:45.851Z,8.81
2022-09-21T23:01:13.134Z,8.82
2022-09-21T23:03:41.950Z,8.83
2022-09-21T23:06:11.751Z,8.84
2022-09-21T23:08:39.775Z,8.85
2022-09-21T23:11:13.893Z,8.85
2022-09-21T23:13:41.635Z,8.84
2022-09-21T23:16:11.410Z,8.85
2022-09-21T23:18:40.181Z,8.87
2022-09-21T23:21:11.420Z,8.86
2022-09-21T23:23:38.860Z,8.82
2022-09-21T23:26:07.252Z,8.82
2022-09-21T23:28:36.107Z,8.80
2022-09-21T23:31:06.448Z,8.81
2022-09-21T23:33:36.011Z,8.80
2022-09-21T23:36:04.613Z,8.82
2022-09-21T23:38:32.056Z,8.82
2022-09-21T23:41:06.363Z,8.81
2022-09-21T23:43:34.710Z,8.83
2022-09-21T23:46:02.134Z,8.80
2022-09-21T23:48:29.265Z,8.78
2022-09-21T23:50:57.682Z,8.78
2022-09-21T23:53:25.721Z,8.79
2022-09-21T23:55:52.704Z,8.78
2022-09-21T23:58:20.572Z,8.77
